sensor_id;sensor_type;location;lat;lon;timestamp;P1;P2;P0
64114;PMS5003;62188;35.640;139.748;2024-01-15T00:02:14;1;0;
64114;PMS5003;62188;35.640;139.748;2024-01-15T00:04:40;0;0;
64114;PMS5003;62188;35.640;139.748;2024-01-15T00:07:06;0;0;
64114;PMS5003;62188;35.640;139.748;2024-01-15T00:09:31;0;0;
64114;PMS5003;62188;35.640;139.748;2024-01-15T00:11:56;0;0;
64114;PMS5003;62188;35.640;139.748;2024-01-15T00:14:22;1;1;
64114;PMS5003;62188;35.640;139.748;2024-01-15T00:16:48;1;0;
64114;PMS5003;62188;35.640;139.748;2024-01-15T00:19:14;0;0;
64114;PMS5003;62188;35.640;139.748;2024-01-15T00:21:39;1;1;
64114;PMS5003;62188;35.640;139.748;2024-01-15T00:24:05;0;0;
64114;PMS5003;62188;35.640;139.748;2024-01-15T00:26:30;1;1;
64114;PMS5003;62188;35.640;139.748;2024-01-15T00:28:56;0;0;
64114;PMS5003;62188;35.640;139.748;2024-01-15T00:31:23;1;1;
64114;PMS5003;62188;35.640;139.748;2024-01-15T00:33:47;1;1;
64114;PMS5003;62188;35.640;139.748;2024-01-15T00:36:13;1;1;
64114;PMS5003;62188;35.640;139.748;2024-01-15T00:38:38;2;1;
64114;PMS5003;62188;35.640;139.748;2024-01-15T00:41:06;0;0;
64114;PMS5003;62188;35.640;139.748;2024-01-15T00:43:31;1;1;
64114;PMS5003;62188;35.640;139.748;2024-01-15T00:45:56;1;1;
64114;PMS5003;62188;35.640;139.748;2024-01-15T00:48:23;1;1;
64114;PMS5003;62188;35.640;139.748;2024-01-15T00:50:47;1;1;
64114;PMS5003;62188;35.640;139.748;2024-01-15T00:53:15;0;0;
64114;PMS5003;62188;35.640;139.748;2024-01-15T00:55:39;1;1;
64114;PMS5003;62188;35.640;139.748;2024-01-15T00:58:04;0;0;
64114;PMS5003;62188;35.640;139.748;2024-01-15T01:00:29;0;0;
64114;PMS5003;62188;35.640;139.748;2024-01-15T01:02:55;1;1;
64114;PMS5003;62188;35.640;139.748;2024-01-15T01:05:22;0;0;
64114;PMS5003;62188;35.640;139.748;2024-01-15T01:07:47;1;1;
64114;PMS5003;62188;35.640;139.748;2024-01-15T01:10:12;1;1;
64114;PMS5003;62188;35.640;139.748;2024-01-15T01:12:38;0;0;
64114;PMS5003;62188;35.640;139.748;2024-01-15T01:15:03;0;0;
64114;PMS5003;62188;35.640;139.748;2024-01-15T01:17:30;1;1;
64114;PMS5003;62188;35.640;139.748;2024-01-15T01:19:55;0;0;
64114;PMS5003;62188;35.640;139.748;2024-01-15T01:22:20;1;1;
64114;PMS5003;62188;35.640;139.748;2024-01-15T01:24:45;2;1;
64114;PMS5003;62188;35.640;139.748;2024-01-15T01:27:11;1;1;
64114;PMS5003;62188;35.640;139.748;2024-01-15T01:29:36;1;1;
64114;PMS5003;62188;35.640;139.748;2024-01-15T01:32:02;1;1;
64114;PMS5003;62188;35.640;139.748;2024-01-15T01:34:29;1;1;
64114;PMS5003;62188;35.640;139.748;2024-01-15T01:36:55;1;1;
64114;PMS5003;62188;35.640;139.748;2024-01-15T01:39:19;1;1;
64114;PMS5003;62188;35.640;139.748;2024-01-15T01:41:44;1;1;
64114;PMS5003;62188;35.640;139.748;2024-01-15T01:44:10;3;2;
64114;PMS5003;62188;35.640;139.748;2024-01-15T01:46:35;0;0;
64114;PMS5003;62188;35.640;139.748;2024-01-15T01:49:01;1;1;
64114;PMS5003;62188;35.640;139.748;2024-01-15T01:51:27;2;1;
64114;PMS5003;62188;35.640;139.748;2024-01-15T01:53:52;2;2;
64114;PMS5003;62188;35.640;139.748;2024-01-15T01:56:19;2;1;
64114;PMS5003;62188;35.640;139.748;2024-01-15T01:58:44;2;1;
64114;PMS5003;62188;35.640;139.748;2024-01-15T02:01:08;1;1;
64114;PMS5003;62188;35.640;139.748;2024-01-15T02:03:34;0;0;
64114;PMS5003;62188;35.640;139.748;2024-01-15T02:05:59;3;3;
64114;PMS5003;62188;35.640;139.748;2024-01-15T02:08:25;1;1;
64114;PMS5003;62188;35.640;139.748;2024-01-15T02:10:51;1;1;
64114;PMS5003;62188;35.640;139.748;2024-01-15T02:13:16;1;1;
64114;PMS5003;62188;35.640;139.748;2024-01-15T02:15:41;1;1;
64114;PMS5003;62188;35.640;139.748;2024-01-15T02:18:08;1;1;
64114;PMS5003;62188;35.640;139.748;2024-01-15T02:20:32;0;0;
64114;PMS5003;62188;35.640;139.748;2024-01-15T02:23:05;0;0;
64114;PMS5003;62188;35.640;139.748;2024-01-15T02:25:23;1;1;
64114;PMS5003;62188;35.640;139.748;2024-01-15T02:27:49;2;2;
64114;PMS5003;62188;35.640;139.748;2024-01-15T02:30:16;3;1;
64114;PMS5003;62188;35.640;139.748;2024-01-15T02:32:40;1;1;
64114;PMS5003;62188;35.640;139.748;2024-01-15T02:35:08;1;0;
64114;PMS5003;62188;35.640;139.748;2024-01-15T02:37:42;3;2;
64114;PMS5003;62188;35.640;139.748;2024-01-15T02:39:57;2;2;
64114;PMS5003;62188;35.640;139.748;2024-01-15T02:42:22;2;1;
64114;PMS5003;62188;35.640;139.748;2024-01-15T02:44:48;1;1;
64114;PMS5003;62188;35.640;139.748;2024-01-15T02:47:13;1;1;
64114;PMS5003;62188;35.640;139.748;2024-01-15T02:49:38;1;1;
64114;PMS5003;62188;35.640;139.748;2024-01-15T02:52:05;1;1;
64114;PMS5003;62188;35.640;139.748;2024-01-15T02:54:30;1;1;
64114;PMS5003;62188;35.640;139.748;2024-01-15T02:56:57;1;1;
64114;PMS5003;62188;35.640;139.748;2024-01-15T02:59:21;3;3;
64114;PMS5003;62188;35.640;139.748;2024-01-15T03:01:46;2;1;
64114;PMS5003;62188;35.640;139.748;2024-01-15T03:04:12;1;1;
64114;PMS5003;62188;35.640;139.748;2024-01-15T03:06:37;1;0;
64114;PMS5003;62188;35.640;139.748;2024-01-15T03:09:03;0;0;
64114;PMS5003;62188;35.640;139.748;2024-01-15T03:11:30;0;0;
64114;PMS5003;62188;35.640;139.748;2024-01-15T03:13:54;1;1;
64114;PMS5003;62188;35.640;139.748;2024-01-15T03:16:19;2;2;
64114;PMS5003;62188;35.640;139.748;2024-01-15T03:18:44;2;2;
64114;PMS5003;62188;35.640;139.748;2024-01-15T03:21:10;2;2;
64114;PMS5003;62188;35.640;139.748;2024-01-15T03:23:36;2;2;
64114;PMS5003;62188;35.640;139.748;2024-01-15T03:26:01;3;2;
64114;PMS5003;62188;35.640;139.748;2024-01-15T03:28:26;2;1;
64114;PMS5003;62188;35.640;139.748;2024-01-15T03:30:52;2;2;
64114;PMS5003;62188;35.640;139.748;2024-01-15T03:33:17;2;2;
64114;PMS5003;62188;35.640;139.748;2024-01-15T03:35:43;3;3;
64114;PMS5003;62188;35.640;139.748;2024-01-15T03:38:08;1;1;
64114;PMS5003;62188;35.640;139.748;2024-01-15T03:40:34;0;0;
64114;PMS5003;62188;35.640;139.748;2024-01-15T03:42:59;2;2;
64114;PMS5003;62188;35.640;139.748;2024-01-15T03:45:25;1;1;
64114;PMS5003;62188;35.640;139.748;2024-01-15T03:47:50;1;1;
64114;PMS5003;62188;35.640;139.748;2024-01-15T03:50:16;2;2;
64114;PMS5003;62188;35.640;139.748;2024-01-15T03:52:42;1;1;
64114;PMS5003;62188;35.640;139.748;2024-01-15T03:55:07;1;1;
64114;PMS5003;62188;35.640;139.748;2024-01-15T03:57:37;1;1;
64114;PMS5003;62188;35.640;139.748;2024-01-15T03:59:59;1;1;
64114;PMS5003;62188;35.640;139.748;2024-01-15T04:02:24;1;1;
64114;PMS5003;62188;35.640;139.748;2024-01-15T04:04:49;0;0;
64114;PMS5003;62188;35.640;139.748;2024-01-15T04:07:15;1;1;
64114;PMS5003;62188;35.640;139.748;2024-01-15T04:09:40;2;2;
64114;PMS5003;62188;35.640;139.748;2024-01-15T04:12:06;1;1;
64114;PMS5003;62188;35.640;139.748;2024-01-15T04:14:31;4;3;
64114;PMS5003;62188;35.640;139.748;2024-01-15T04:16:57;2;2;
64114;PMS5003;62188;35.640;139.748;2024-01-15T04:19:23;3;1;
64114;PMS5003;62188;35.640;139.748;2024-01-15T04:21:48;2;2;
64114;PMS5003;62188;35.640;139.748;2024-01-15T04:24:15;1;1;
64114;PMS5003;62188;35.640;139.748;2024-01-15T04:26:40;2;1;
64114;PMS5003;62188;35.640;139.748;2024-01-15T04:29:07;2;2;
64114;PMS5003;62188;35.640;139.748;2024-01-15T04:31:31;2;1;
64114;PMS5003;62188;35.640;139.748;2024-01-15T04:33:57;1;1;
64114;PMS5003;62188;35.640;139.748;2024-01-15T04:36:22;0;0;
64114;PMS5003;62188;35.640;139.748;2024-01-15T04:38:48;1;1;
64114;PMS5003;62188;35.640;139.748;2024-01-15T04:41:14;2;2;
64114;PMS5003;62188;35.640;139.748;2024-01-15T04:43:40;0;0;
64114;PMS5003;62188;35.640;139.748;2024-01-15T04:46:05;1;1;
64114;PMS5003;62188;35.640;139.748;2024-01-15T04:48:30;0;0;
64114;PMS5003;62188;35.640;139.748;2024-01-15T04:50:55;1;1;
64114;PMS5003;62188;35.640;139.748;2024-01-15T04:53:21;1;1;
64114;PMS5003;62188;35.640;139.748;2024-01-15T04:55:47;1;1;
64114;PMS5003;62188;35.640;139.748;2024-01-15T04:58:11;2;2;
64114;PMS5003;62188;35.640;139.748;2024-01-15T05:00:38;2;1;
64114;PMS5003;62188;35.640;139.748;2024-01-15T05:03:03;0;0;
64114;PMS5003;62188;35.640;139.748;2024-01-15T05:05:29;0;0;
64114;PMS5003;62188;35.640;139.748;2024-01-15T05:07:55;0;0;
64114;PMS5003;62188;35.640;139.748;2024-01-15T05:10:22;2;1;
64114;PMS5003;62188;35.640;139.748;2024-01-15T05:12:46;1;1;
64114;PMS5003;62188;35.640;139.748;2024-01-15T05:15:11;1;0;
64114;PMS5003;62188;35.640;139.748;2024-01-15T05:17:37;2;2;
64114;PMS5003;62188;35.640;139.748;2024-01-15T05:20:02;1;1;
64114;PMS5003;62188;35.640;139.748;2024-01-15T05:22:27;1;1;
64114;PMS5003;62188;35.640;139.748;2024-01-15T05:24:53;1;1;
64114;PMS5003;62188;35.640;139.748;2024-01-15T05:27:23;2;2;
64114;PMS5003;62188;35.640;139.748;2024-01-15T05:29:46;1;1;
64114;PMS5003;62188;35.640;139.748;2024-01-15T05:32:10;1;1;
64114;PMS5003;62188;35.640;139.748;2024-01-15T05:34:36;0;0;
64114;PMS5003;62188;35.640;139.748;2024-01-15T05:37:01;1;0;
64114;PMS5003;62188;35.640;139.748;2024-01-15T05:39:27;0;0;
64114;PMS5003;62188;35.640;139.748;2024-01-15T05:41:54;1;1;
64114;PMS5003;62188;35.640;139.748;2024-01-15T05:44:18;1;1;
64114;PMS5003;62188;35.640;139.748;2024-01-15T05:46:45;2;2;
64114;PMS5003;62188;35.640;139.748;2024-01-15T05:49:10;1;1;
64114;PMS5003;62188;35.640;139.748;2024-01-15T05:51:35;1;1;
64114;PMS5003;62188;35.640;139.748;2024-01-15T05:54:00;1;0;
64114;PMS5003;62188;35.640;139.748;2024-01-15T05:56:25;0;0;
64114;PMS5003;62188;35.640;139.748;2024-01-15T05:58:53;0;0;
64114;PMS5003;62188;35.640;139.748;2024-01-15T06:01:17;0;0;
64114;PMS5003;62188;35.640;139.748;2024-01-15T06:03:44;1;1;
64114;PMS5003;62188;35.640;139.748;2024-01-15T06:06:09;2;2;
64114;PMS5003;62188;35.640;139.748;2024-01-15T06:08:34;3;2;
64114;PMS5003;62188;35.640;139.748;2024-01-15T06:11:00;2;2;
64114;PMS5003;62188;35.640;139.748;2024-01-15T06:13:25;1;1;
64114;PMS5003;62188;35.640;139.748;2024-01-15T06:15:51;1;1;
64114;PMS5003;62188;35.640;139.748;2024-01-15T06:18:17;0;0;
64114;PMS5003;62188;35.640;139.748;2024-01-15T06:20:42;2;1;
64114;PMS5003;62188;35.640;139.748;2024-01-15T06:23:08;1;1;
64114;PMS5003;62188;35.640;139.748;2024-01-15T06:25:34;1;1;
64114;PMS5003;62188;35.640;139.748;2024-01-15T06:27:59;1;1;
64114;PMS5003;62188;35.640;139.748;2024-01-15T06:30:25;0;0;
64114;PMS5003;62188;35.640;139.748;2024-01-15T06:32:52;2;0;
64114;PMS5003;62188;35.640;139.748;2024-01-15T06:35:16;0;0;
64114;PMS5003;62188;35.640;139.748;2024-01-15T06:37:42;0;0;
64114;PMS5003;62188;35.640;139.748;2024-01-15T06:40:09;1;1;
64114;PMS5003;62188;35.640;139.748;2024-01-15T06:42:33;0;0;
64114;PMS5003;62188;35.640;139.748;2024-01-15T06:45:00;0;0;
64114;PMS5003;62188;35.640;139.748;2024-01-15T06:47:24;1;1;
64114;PMS5003;62188;35.640;139.748;2024-01-15T06:49:50;1;1;
64114;PMS5003;62188;35.640;139.748;2024-01-15T06:52:17;2;1;
64114;PMS5003;62188;35.640;139.748;2024-01-15T06:54:42;0;0;
64114;PMS5003;62188;35.640;139.748;2024-01-15T06:57:07;0;0;
64114;PMS5003;62188;35.640;139.748;2024-01-15T06:59:33;3;1;
64114;PMS5003;62188;35.640;139.748;2024-01-15T07:01:59;1;1;
64114;PMS5003;62188;35.640;139.748;2024-01-15T07:04:25;0;0;
64114;PMS5003;62188;35.640;139.748;2024-01-15T07:06:50;1;1;
64114;PMS5003;62188;35.640;139.748;2024-01-15T07:09:16;2;1;
64114;PMS5003;62188;35.640;139.748;2024-01-15T07:11:44;1;1;
64114;PMS5003;62188;35.640;139.748;2024-01-15T07:14:07;0;0;
64114;PMS5003;62188;35.640;139.748;2024-01-15T07:16:33;0;0;
64114;PMS5003;62188;35.640;139.748;2024-01-15T07:19:00;1;1;
64114;PMS5003;62188;35.640;139.748;2024-01-15T07:21:24;1;1;
64114;PMS5003;62188;35.640;139.748;2024-01-15T07:23:50;0;0;
64114;PMS5003;62188;35.640;139.748;2024-01-15T07:26:15;1;0;
64114;PMS5003;62188;35.640;139.748;2024-01-15T07:28:41;0;0;
64114;PMS5003;62188;35.640;139.748;2024-01-15T07:31:07;1;0;
64114;PMS5003;62188;35.640;139.748;2024-01-15T07:33:32;1;1;
64114;PMS5003;62188;35.640;139.748;2024-01-15T07:36:00;1;1;
64114;PMS5003;62188;35.640;139.748;2024-01-15T07:38:25;0;0;
64114;PMS5003;62188;35.640;139.748;2024-01-15T07:40:49;1;1;
64114;PMS5003;62188;35.640;139.748;2024-01-15T07:43:15;0;0;
64114;PMS5003;62188;35.640;139.748;2024-01-15T07:45:41;0;0;
64114;PMS5003;62188;35.640;139.748;2024-01-15T07:48:07;1;0;
64114;PMS5003;62188;35.640;139.748;2024-01-15T07:50:32;0;0;
64114;PMS5003;62188;35.640;139.748;2024-01-15T07:52:58;0;0;
64114;PMS5003;62188;35.640;139.748;2024-01-15T07:55:23;0;0;
64114;PMS5003;62188;35.640;139.748;2024-01-15T07:57:49;0;0;
64114;PMS5003;62188;35.640;139.748;2024-01-15T08:00:16;1;1;
64114;PMS5003;62188;35.640;139.748;2024-01-15T08:02:40;0;0;
64114;PMS5003;62188;35.640;139.748;2024-01-15T08:05:06;0;0;
64114;PMS5003;62188;35.640;139.748;2024-01-15T08:07:32;0;0;
64114;PMS5003;62188;35.640;139.748;2024-01-15T08:09:58;0;0;
64114;PMS5003;62188;35.640;139.748;2024-01-15T08:12:24;1;1;
64114;PMS5003;62188;35.640;139.748;2024-01-15T08:14:49;1;1;
64114;PMS5003;62188;35.640;139.748;2024-01-15T08:17:16;1;0;
64114;PMS5003;62188;35.640;139.748;2024-01-15T08:19:42;0;0;
64114;PMS5003;62188;35.640;139.748;2024-01-15T08:22:06;1;1;
64114;PMS5003;62188;35.640;139.748;2024-01-15T08:24:31;1;1;
64114;PMS5003;62188;35.640;139.748;2024-01-15T08:26:59;1;1;
64114;PMS5003;62188;35.640;139.748;2024-01-15T08:29:23;1;1;
64114;PMS5003;62188;35.640;139.748;2024-01-15T08:31:49;1;1;
64114;PMS5003;62188;35.640;139.748;2024-01-15T08:34:15;1;1;
64114;PMS5003;62188;35.640;139.748;2024-01-15T08:36:40;1;1;
64114;PMS5003;62188;35.640;139.748;2024-01-15T08:39:06;1;1;
64114;PMS5003;62188;35.640;139.748;2024-01-15T08:41:33;1;1;
64114;PMS5003;62188;35.640;139.748;2024-01-15T08:43:57;3;2;
64114;PMS5003;62188;35.640;139.748;2024-01-15T08:46:25;0;0;
64114;PMS5003;62188;35.640;139.748;2024-01-15T08:48:49;1;1;
64114;PMS5003;62188;35.640;139.748;2024-01-15T08:51:14;0;0;
64114;PMS5003;62188;35.640;139.748;2024-01-15T08:53:40;1;1;
64114;PMS5003;62188;35.640;139.748;2024-01-15T08:56:06;1;1;
64114;PMS5003;62188;35.640;139.748;2024-01-15T08:58:32;1;1;
64114;PMS5003;62188;35.640;139.748;2024-01-15T09:00:58;1;0;
64114;PMS5003;62188;35.640;139.748;2024-01-15T09:03:23;1;1;
64114;PMS5003;62188;35.640;139.748;2024-01-15T09:05:49;0;0;
64114;PMS5003;62188;35.640;139.748;2024-01-15T09:08:15;0;0;
64114;PMS5003;62188;35.640;139.748;2024-01-15T09:10:40;1;1;
64114;PMS5003;62188;35.640;139.748;2024-01-15T09:13:06;1;1;
64114;PMS5003;62188;35.640;139.748;2024-01-15T09:15:31;1;1;
64114;PMS5003;62188;35.640;139.748;2024-01-15T09:17:57;1;1;
64114;PMS5003;62188;35.640;139.748;2024-01-15T09:20:23;2;1;
64114;PMS5003;62188;35.640;139.748;2024-01-15T09:22:49;1;1;
64114;PMS5003;62188;35.640;139.748;2024-01-15T09:25:14;2;1;
64114;PMS5003;62188;35.640;139.748;2024-01-15T09:27:40;1;1;
64114;PMS5003;62188;35.640;139.748;2024-01-15T09:30:07;2;2;
64114;PMS5003;62188;35.640;139.748;2024-01-15T09:32:32;1;0;
64114;PMS5003;62188;35.640;139.748;2024-01-15T09:34:57;1;1;
64114;PMS5003;62188;35.640;139.748;2024-01-15T09:37:23;0;0;
64114;PMS5003;62188;35.640;139.748;2024-01-15T09:39:51;3;1;
64114;PMS5003;62188;35.640;139.748;2024-01-15T09:42:16;2;2;
64114;PMS5003;62188;35.640;139.748;2024-01-15T09:44:41;1;1;
64114;PMS5003;62188;35.640;139.748;2024-01-15T09:47:06;2;2;
64114;PMS5003;62188;35.640;139.748;2024-01-15T09:49:32;2;2;
64114;PMS5003;62188;35.640;139.748;2024-01-15T09:52:00;2;2;
64114;PMS5003;62188;35.640;139.748;2024-01-15T09:54:23;2;2;
64114;PMS5003;62188;35.640;139.748;2024-01-15T09:56:49;2;2;
64114;PMS5003;62188;35.640;139.748;2024-01-15T09:59:16;4;2;
64114;PMS5003;62188;35.640;139.748;2024-01-15T10:01:41;1;1;
64114;PMS5003;62188;35.640;139.748;2024-01-15T10:04:06;2;1;
64114;PMS5003;62188;35.640;139.748;2024-01-15T10:06:32;1;1;
64114;PMS5003;62188;35.640;139.748;2024-01-15T10:08:58;2;2;
64114;PMS5003;62188;35.640;139.748;2024-01-15T10:11:24;2;2;
64114;PMS5003;62188;35.640;139.748;2024-01-15T10:13:49;1;1;
64114;PMS5003;62188;35.640;139.748;2024-01-15T10:16:15;1;1;
64114;PMS5003;62188;35.640;139.748;2024-01-15T10:18:42;2;2;
64114;PMS5003;62188;35.640;139.748;2024-01-15T10:21:07;2;1;
64114;PMS5003;62188;35.640;139.748;2024-01-15T10:23:32;1;1;
64114;PMS5003;62188;35.640;139.748;2024-01-15T10:25:58;1;1;
64114;PMS5003;62188;35.640;139.748;2024-01-15T10:28:25;1;1;
64114;PMS5003;62188;35.640;139.748;2024-01-15T10:30:52;2;1;
64114;PMS5003;62188;35.640;139.748;2024-01-15T10:33:15;0;0;
64114;PMS5003;62188;35.640;139.748;2024-01-15T10:35:40;1;1;
64114;PMS5003;62188;35.640;139.748;2024-01-15T10:38:06;3;2;
64114;PMS5003;62188;35.640;139.748;2024-01-15T10:40:32;1;1;
64114;PMS5003;62188;35.640;139.748;2024-01-15T10:42:58;0;0;
64114;PMS5003;62188;35.640;139.748;2024-01-15T10:45:24;4;3;
64114;PMS5003;62188;35.640;139.748;2024-01-15T10:47:49;0;0;
64114;PMS5003;62188;35.640;139.748;2024-01-15T10:50:16;3;2;
64114;PMS5003;62188;35.640;139.748;2024-01-15T10:52:41;3;3;
64114;PMS5003;62188;35.640;139.748;2024-01-15T10:55:08;1;1;
64114;PMS5003;62188;35.640;139.748;2024-01-15T10:57:32;2;1;
64114;PMS5003;62188;35.640;139.748;2024-01-15T11:00:00;0;0;
64114;PMS5003;62188;35.640;139.748;2024-01-15T11:02:24;1;1;
64114;PMS5003;62188;35.640;139.748;2024-01-15T11:04:49;0;0;
64114;PMS5003;62188;35.640;139.748;2024-01-15T11:07:15;1;1;
64114;PMS5003;62188;35.640;139.748;2024-01-15T11:09:41;2;2;
64114;PMS5003;62188;35.640;139.748;2024-01-15T11:12:07;1;1;
64114;PMS5003;62188;35.640;139.748;2024-01-15T11:14:38;2;2;
64114;PMS5003;62188;35.640;139.748;2024-01-15T11:16:58;2;2;
64114;PMS5003;62188;35.640;139.748;2024-01-15T11:19:24;3;2;
64114;PMS5003;62188;35.640;139.748;2024-01-15T11:21:50;3;2;
64114;PMS5003;62188;35.640;139.748;2024-01-15T11:26:46;1;1;
64114;PMS5003;62188;35.640;139.748;2024-01-15T11:29:28;2;1;
64114;PMS5003;62188;35.640;139.748;2024-01-15T11:34:00;1;1;
64114;PMS5003;62188;35.640;139.748;2024-01-15T11:38:50;2;1;
64114;PMS5003;62188;35.640;139.748;2024-01-15T11:41:16;1;1;
64114;PMS5003;62188;35.640;139.748;2024-01-15T11:43:41;2;1;
64114;PMS5003;62188;35.640;139.748;2024-01-15T11:46:08;2;2;
64114;PMS5003;62188;35.640;139.748;2024-01-15T11:48:35;0;0;
64114;PMS5003;62188;35.640;139.748;2024-01-15T11:50:59;1;1;
64114;PMS5003;62188;35.640;139.748;2024-01-15T11:53:27;1;1;
64114;PMS5003;62188;35.640;139.748;2024-01-15T11:55:51;2;2;
64114;PMS5003;62188;35.640;139.748;2024-01-15T11:58:15;0;0;
64114;PMS5003;62188;35.640;139.748;2024-01-15T12:00:43;2;2;
64114;PMS5003;62188;35.640;139.748;2024-01-15T12:03:08;2;1;
64114;PMS5003;62188;35.640;139.748;2024-01-15T12:05:33;1;1;
64114;PMS5003;62188;35.640;139.748;2024-01-15T12:08:00;1;1;
64114;PMS5003;62188;35.640;139.748;2024-01-15T12:10:24;1;1;
64114;PMS5003;62188;35.640;139.748;2024-01-15T12:12:56;2;1;
64114;PMS5003;62188;35.640;139.748;2024-01-15T12:15:16;1;1;
64114;PMS5003;62188;35.640;139.748;2024-01-15T12:17:41;1;1;
64114;PMS5003;62188;35.640;139.748;2024-01-15T12:20:07;1;1;
64114;PMS5003;62188;35.640;139.748;2024-01-15T12:22:33;1;1;
64114;PMS5003;62188;35.640;139.748;2024-01-15T12:24:59;1;1;
64114;PMS5003;62188;35.640;139.748;2024-01-15T12:27:25;2;2;
64114;PMS5003;62188;35.640;139.748;2024-01-15T12:29:50;1;1;
64114;PMS5003;62188;35.640;139.748;2024-01-15T12:32:18;1;1;
64114;PMS5003;62188;35.640;139.748;2024-01-15T12:34:42;1;1;
64114;PMS5003;62188;35.640;139.748;2024-01-15T12:37:07;0;0;
64114;PMS5003;62188;35.640;139.748;2024-01-15T12:39:34;1;1;
64114;PMS5003;62188;35.640;139.748;2024-01-15T12:41:59;2;1;
64114;PMS5003;62188;35.640;139.748;2024-01-15T12:44:25;1;1;
64114;PMS5003;62188;35.640;139.748;2024-01-15T12:46:51;1;1;
64114;PMS5003;62188;35.640;139.748;2024-01-15T12:49:18;1;1;
64114;PMS5003;62188;35.640;139.748;2024-01-15T12:51:42;2;2;
64114;PMS5003;62188;35.640;139.748;2024-01-15T12:54:08;1;1;
64114;PMS5003;62188;35.640;139.748;2024-01-15T12:56:33;3;3;
64114;PMS5003;62188;35.640;139.748;2024-01-15T12:58:59;0;0;
64114;PMS5003;62188;35.640;139.748;2024-01-15T13:01:25;0;0;
64114;PMS5003;62188;35.640;139.748;2024-01-15T13:03:51;4;3;
64114;PMS5003;62188;35.640;139.748;2024-01-15T13:06:18;2;2;
64114;PMS5003;62188;35.640;139.748;2024-01-15T13:08:42;1;1;
64114;PMS5003;62188;35.640;139.748;2024-01-15T13:11:08;2;2;
64114;PMS5003;62188;35.640;139.748;2024-01-15T13:13:34;1;1;
64114;PMS5003;62188;35.640;139.748;2024-01-15T13:15:59;2;2;
64114;PMS5003;62188;35.640;139.748;2024-01-15T13:18:25;3;1;
64114;PMS5003;62188;35.640;139.748;2024-01-15T13:20:51;1;1;
64114;PMS5003;62188;35.640;139.748;2024-01-15T13:23:17;1;1;
64114;PMS5003;62188;35.640;139.748;2024-01-15T13:25:43;2;2;
64114;PMS5003;62188;35.640;139.748;2024-01-15T13:28:10;2;2;
64114;PMS5003;62188;35.640;139.748;2024-01-15T13:30:34;2;2;
64114;PMS5003;62188;35.640;139.748;2024-01-15T13:33:00;1;1;
64114;PMS5003;62188;35.640;139.748;2024-01-15T13:35:25;1;1;
64114;PMS5003;62188;35.640;139.748;2024-01-15T13:37:51;2;2;
64114;PMS5003;62188;35.640;139.748;2024-01-15T13:40:17;1;1;
64114;PMS5003;62188;35.640;139.748;2024-01-15T13:42:43;1;1;
64114;PMS5003;62188;35.640;139.748;2024-01-15T13:45:09;2;1;
64114;PMS5003;62188;35.640;139.748;2024-01-15T13:47:35;1;1;
64114;PMS5003;62188;35.640;139.748;2024-01-15T13:50:00;1;1;
64114;PMS5003;62188;35.640;139.748;2024-01-15T13:52:26;1;1;
64114;PMS5003;62188;35.640;139.748;2024-01-15T13:54:51;1;0;
64114;PMS5003;62188;35.640;139.748;2024-01-15T13:57:17;4;1;
64114;PMS5003;62188;35.640;139.748;2024-01-15T13:59:44;2;2;
64114;PMS5003;62188;35.640;139.748;2024-01-15T14:02:09;1;1;
64114;PMS5003;62188;35.640;139.748;2024-01-15T14:04:35;1;1;
64114;PMS5003;62188;35.640;139.748;2024-01-15T14:07:02;1;0;
64114;PMS5003;62188;35.640;139.748;2024-01-15T14:09:26;1;1;
64114;PMS5003;62188;35.640;139.748;2024-01-15T14:11:52;1;1;
64114;PMS5003;62188;35.640;139.748;2024-01-15T14:14:20;1;1;
64114;PMS5003;62188;35.640;139.748;2024-01-15T14:16:43;2;2;
64114;PMS5003;62188;35.640;139.748;2024-01-15T14:19:09;1;1;
64114;PMS5003;62188;35.640;139.748;2024-01-15T14:21:35;1;1;
64114;PMS5003;62188;35.640;139.748;2024-01-15T14:24:01;2;2;
64114;PMS5003;62188;35.640;139.748;2024-01-15T14:26:27;1;1;
64114;PMS5003;62188;35.640;139.748;2024-01-15T14:28:52;1;1;
64114;PMS5003;62188;35.640;139.748;2024-01-15T14:31:18;1;0;
64114;PMS5003;62188;35.640;139.748;2024-01-15T14:33:44;2;2;
64114;PMS5003;62188;35.640;139.748;2024-01-15T14:36:10;2;2;
64114;PMS5003;62188;35.640;139.748;2024-01-15T14:38:36;4;3;
64114;PMS5003;62188;35.640;139.748;2024-01-15T14:41:01;3;3;
64114;PMS5003;62188;35.640;139.748;2024-01-15T14:43:28;3;2;
64114;PMS5003;62188;35.640;139.748;2024-01-15T14:45:53;2;2;
64114;PMS5003;62188;35.640;139.748;2024-01-15T14:48:19;2;2;
64114;PMS5003;62188;35.640;139.748;2024-01-15T14:50:44;3;3;
64114;PMS5003;62188;35.640;139.748;2024-01-15T14:53:11;4;4;
64114;PMS5003;62188;35.640;139.748;2024-01-15T14:55:36;5;5;
64114;PMS5003;62188;35.640;139.748;2024-01-15T14:58:02;4;4;
64114;PMS5003;62188;35.640;139.748;2024-01-15T15:00:28;3;3;
64114;PMS5003;62188;35.640;139.748;2024-01-15T15:02:53;7;6;
64114;PMS5003;62188;35.640;139.748;2024-01-15T15:05:20;3;3;
64114;PMS5003;62188;35.640;139.748;2024-01-15T15:07:45;5;5;
64114;PMS5003;62188;35.640;139.748;2024-01-15T15:10:11;3;3;
64114;PMS5003;62188;35.640;139.748;2024-01-15T15:12:37;3;3;
64114;PMS5003;62188;35.640;139.748;2024-01-15T15:15:03;4;4;
64114;PMS5003;62188;35.640;139.748;2024-01-15T15:17:28;3;3;
64114;PMS5003;62188;35.640;139.748;2024-01-15T15:19:54;10;9;
64114;PMS5003;62188;35.640;139.748;2024-01-15T15:22:20;5;4;
64114;PMS5003;62188;35.640;139.748;2024-01-15T15:24:46;6;6;
64114;PMS5003;62188;35.640;139.748;2024-01-15T15:27:12;11;9;
64114;PMS5003;62188;35.640;139.748;2024-01-15T15:29:37;8;8;
64114;PMS5003;62188;35.640;139.748;2024-01-15T15:32:03;12;12;
64114;PMS5003;62188;35.640;139.748;2024-01-15T15:34:29;11;11;
64114;PMS5003;62188;35.640;139.748;2024-01-15T15:36:54;21;20;
64114;PMS5003;62188;35.640;139.748;2024-01-15T15:39:20;8;7;
64114;PMS5003;62188;35.640;139.748;2024-01-15T15:41:45;27;25;
64114;PMS5003;62188;35.640;139.748;2024-01-15T15:44:12;9;9;
64114;PMS5003;62188;35.640;139.748;2024-01-15T15:46:37;10;9;
64114;PMS5003;62188;35.640;139.748;2024-01-15T15:49:01;11;11;
64114;PMS5003;62188;35.640;139.748;2024-01-15T15:51:27;16;14;
64114;PMS5003;62188;35.640;139.748;2024-01-15T15:53:53;17;14;
64114;PMS5003;62188;35.640;139.748;2024-01-15T15:56:18;7;6;
64114;PMS5003;62188;35.640;139.748;2024-01-15T15:58:44;10;10;
64114;PMS5003;62188;35.640;139.748;2024-01-15T16:01:10;4;3;
64114;PMS5003;62188;35.640;139.748;2024-01-15T16:03:35;20;17;
64114;PMS5003;62188;35.640;139.748;2024-01-15T16:06:00;15;14;
64114;PMS5003;62188;35.640;139.748;2024-01-15T16:08:29;26;23;
64114;PMS5003;62188;35.640;139.748;2024-01-15T16:10:51;11;11;
64114;PMS5003;62188;35.640;139.748;2024-01-15T16:13:17;15;11;